Billings, MT

3:11 PM MST on December 27, 2014 (GMT -0700)
South of Castle Rock Park | Change Station
CLOSE
Current Station
Personal Weather Station
Location: Billings, MT
Elevation: 3297 ft
Nearby Weather Stations
Active Advisory: Winter Weather Advisory

Elev 3297 ft 45.82 °N, 108.50 °W | Updated 0 second ago

Mostly Cloudy
Mostly Cloudy
28.4 °F
Feels Like 23 °F
N
4.7
Wind Variable Wind from WSW
Gusts 7.8 mph

Today
High -- | Low -- °F
--% Chance of Precip.
Yesterday
High -- | Low -- °F
Precip. -- in
7:54 AM 4:35 PM
Waxing Crescent, 40% visible
Pressure 30.14 in
Visibility 10.0 miles
Clouds Few 6500 ft
Scattered Clouds 12000 ft
Mostly Cloudy 22000 ft
Windchill 23 °F
Dew Point 18 °F
Humidity 63%
Rainfall 0.00 in
Snow Depth Not available.
UV 0 out of 12
Pollen .10 out of 12
Air Quality Not available.
Flu Activity Not available.
METAR KBIL 272153Z 24016G21KT 10SM FEW065 SCT120 BKN220 M04/M10 A2999 RMK AO2 SLP205 ACSL ALQDS T10441100 $

More Conditions Fewer Conditions

Pressure 30.14 in
Visibility 10.0 miles
Clouds Few 6500 ft
Scattered Clouds 12000 ft
Mostly Cloudy 22000 ft
Windchill 23 °F
Dew Point 18 °F
Humidity 63%
Rainfall 0.00 in
Snow Depth Not available.
UV 0 out of 12
Pollen .10 out of 12
Air Quality Not available.
Flu Activity Not available.
METAR KBIL 272153Z 24016G21KT 10SM FEW065 SCT120 BKN220 M04/M10 A2999 RMK AO2 SLP205 ACSL ALQDS T10441100 $

More Conditions Fewer Conditions

10-Day Weather Forecast

Almanac

Astronomy

Dec. 27, 2014 Rise Set
Actual Time
Civil Twilight
Nautical Twilight
Astronomical Twilight
Moon
Length of Visible Light
Length of Day
Tomorrow will be .
, % of the Moon is Illuminated

Today's Extremes

State Highs State Lows

Community

WunderPhotos

Upload Photos

1,781,090 photos uploaded!

WunderBlogs® & News

Nearby

Air Quality

  Air Quality AQ Index Pollutant
Not available.

Snow Depth

Station Depth Elevation

Earthquake Activity

City Distance Mag. Time & Date
Minimum magnitude displayed is 2.5.

Coastal Water Temperatures

Place Temperature

Nearby Weather Stations